Sam, Kazakhstan
Current Conditions -  °F | °C
As of 12:30 AM on Friday 24 Oct 2014 (Local Time) from UATG Reporting Station
Haze Haze  
Wind Chill: 24°   Ceiling: 1300
Heat Index: 34°   Visibility: 3mi
Dew Point: 34°   Wind: 13mph
Humidity: 100%   Direction: 10°N
Pressure: 30.09"   Gusts: NA
Location:  45.4°N, 56.12°E
Report Text: UATG 232030Z 01006MPS 5000 BR OVC013 01/01 Q1019 R32/19//65NOSIG RMK QFE766/1021
Loading
Personal Weather Stations






























Interactive Weather Map
Tropical Storm Tracking
New forecast layout! Learn more

10-Day Weather Forecast

Advertisements
Track Severe Weather on mobile